Time;durP1;ratioP1;P1;durP2;ratioP2;P2;SDS_P1;SDS_P2;PMS_P1;PMS_P2;Temp;Humidity;BMP_temperature;BMP_pressure;BME280_temperature;BME280_humidity;BME280_pressure;Samples;Min_cycle;Max_cycle;Signal;HPM_P1;HPM_P2
2024/04/15 00:01:51;;;;;;;;;;;;;;;;;;5451271;26;20330;-64
2024/04/15 00:04:16;;;;;;;;;;;;;;;;;;5451372;26;19943;-64
2024/04/15 00:06:41;;;;;;;;;;;;;;;;;;5451339;26;19996;-64
2024/04/15 00:09:07;;;;;;;;;;;;;;;;;;5451406;26;20369;-63
2024/04/15 00:11:32;;;;;;;;;;;;;;;;;;5470016;26;19943;-63
2024/04/15 00:13:57;;;;;;;;;;;;;;;;;;5479428;26;20053;-63
2024/04/15 00:16:22;;;;;;;;;;;;;;;;;;5480617;26;19928;-61
2024/04/15 00:18:47;;;;;;;;;;;;;;;;;;5451458;26;19928;-63
2024/04/15 00:21:12;;;;;;;;;;;;;;;;;;5451493;26;19936;-63
2024/04/15 00:23:37;;;;;;;;;;;;;;;;;;5451526;26;19940;-63
2024/04/15 00:26:02;;;;;;;;;;;;;;;;;;5451506;26;19928;-63
2024/04/15 00:28:28;;;;;;;;;;;;;;;;;;5451905;26;19928;-64
2024/04/15 00:30:53;;;;;;;;;;;;;;;;;;5451531;26;19928;-64
2024/04/15 00:33:18;;;;;;;;;;;;;;;;;;5451342;26;19932;-64
2024/04/15 00:35:43;;;;;;;;;;;;;;;;;;5451379;26;19935;-62
2024/04/15 00:38:08;;;;;;;;;;;;;;;;;;5451254;26;19936;-64
2024/04/15 00:40:33;;;;;;;;;;;;;;;;;;5451459;26;19936;-63
2024/04/15 00:42:58;;;;;;;;;;;;;;;;;;5460764;26;19927;-64
2024/04/15 00:45:23;;;;;;;;;;;;;;;;;;5488011;26;19928;-65
2024/04/15 00:47:49;;;;;;;;;;;;;;;;;;5463427;26;19929;-63
2024/04/15 00:50:14;;;;;;;;;;;;;;;;;;5450793;26;19928;-64
2024/04/15 00:52:39;;;;;;;;;;;;;;;;;;5450345;26;19935;-63
2024/04/15 00:55:05;;;;;;;;;;;;;;;;;;5450729;26;19997;-64
2024/04/15 00:57:30;;;;;;;;;;;;;;;;;;5451415;26;19929;-64
2024/04/15 00:59:55;;;;;;;;;;;;;;;;;;5451046;26;19935;-64
2024/04/15 01:02:20;;;;;;;;;;;;;;;;;;5451012;26;19935;-64
2024/04/15 01:04:46;;;;;;;;;;;;;;;;;;5451146;26;19936;-64
2024/04/15 01:07:12;;;;;;;;;;;;;;;;;;5455739;26;20001;-64
2024/04/15 01:09:37;;;;;;;;;;;;;;;;;;5475440;26;20369;-63
2024/04/15 01:12:02;;;;;;;;;;;;;;;;;;5450676;26;20056;-64
2024/04/15 01:14:27;;;;;;;;;;;;;;;;;;5450944;26;20614;-64
2024/04/15 01:16:53;;;;;;;;;;;;;;;;;;5450732;26;19928;-64
2024/04/15 01:19:18;;;;;;;;;;;;;;;;;;5462891;26;19935;-64
2024/04/15 01:21:43;;;;;;;;;;;;;;;;;;5485382;26;19960;-64
2024/04/15 01:24:08;;;;;;;;;;;;;;;;;;5486967;26;19939;-64
2024/04/15 01:26:33;;;;;;;;;;;;;;;;;;5487358;26;19928;-61
2024/04/15 01:28:58;;;;;;;;;;;;;;;;;;5455371;26;19928;-63
2024/04/15 01:31:23;;;;;;;;;;;;;;;;;;5449674;26;20373;-64
2024/04/15 01:33:48;;;;;;;;;;;;;;;;;;5449393;26;19929;-64
2024/04/15 01:36:14;;;;;;;;;;;;;;;;;;5448528;26;20391;-64
2024/04/15 01:38:39;;;;;;;;;;;;;;;;;;5450427;26;19928;-64
2024/04/15 01:41:04;;;;;;;;;;;;;;;;;;5450575;26;19928;-63
2024/04/15 01:43:29;;;;;;;;;;;;;;;;;;5450100;26;19928;-64
2024/04/15 01:45:54;;;;;;;;;;;;;;;;;;5450021;26;19929;-64
2024/04/15 01:48:19;;;;;;;;;;;;;;;;;;5450363;26;19956;-64
2024/04/15 01:50:44;;;;;;;;;;;;;;;;;;5450026;26;19928;-63
2024/04/15 01:53:11;;;;;;;;;;;;;;;;;;5450118;26;19957;-64
2024/04/15 01:55:36;;;;;;;;;;;;;;;;;;5450283;26;20349;-64
2024/04/15 01:58:01;;;;;;;;;;;;;;;;;;5449013;26;19935;-63
2024/04/15 02:00:26;;;;;;;;;;;;;;;;;;5449754;26;19939;-63
2024/04/15 02:02:51;;;;;;;;;;;;;;;;;;5449745;26;20269;-64
2024/04/15 02:05:16;;;;;;;;;;;;;;;;;;5449962;26;20363;-63
2024/04/15 02:07:42;;;;;;;;;;;;;;;;;;5462320;26;19973;-64
2024/04/15 02:10:07;;;;;;;;;;;;;;;;;;5466858;26;19935;-63
2024/04/15 02:12:32;;;;;;;;;;;;;;;;;;5449952;26;19939;-63
2024/04/15 02:14:57;;;;;;;;;;;;;;;;;;5449844;26;19935;-63
2024/04/15 02:17:22;;;;;;;;;;;;;;;;;;5449821;26;19929;-63
2024/04/15 02:19:47;;;;;;;;;;;;;;;;;;5449701;26;19928;-63
2024/04/15 02:22:12;;;;;;;;;;;;;;;;;;5449947;26;19929;-63
2024/04/15 02:24:37;;;;;;;;;;;;;;;;;;5449362;26;19948;-63
2024/04/15 02:27:03;;;;;;;;;;;;;;;;;;5449427;26;19933;-63
2024/04/15 02:29:28;;;;;;;;;;;;;;;;;;5449607;26;19929;-63
2024/04/15 02:31:53;;;;;;;;;;;;;;;;;;5449604;26;20273;-63
2024/04/15 02:34:18;;;;;;;;;;;;;;;;;;5449611;26;19947;-63
2024/04/15 02:36:43;;;;;;;;;;;;;;;;;;5451322;26;19943;-63
2024/04/15 02:39:10;;;;;;;;;;;;;;;;;;5453280;26;19928;-63
2024/04/15 02:41:35;;;;;;;;;;;;;;;;;;5453091;26;19935;-63
2024/04/15 02:44:00;;;;;;;;;;;;;;;;;;5452499;26;20261;-63
2024/04/15 02:46:25;;;;;;;;;;;;;;;;;;5453003;26;19933;-64
2024/04/15 02:48:50;;;;;;;;;;;;;;;;;;5452952;26;19928;-63
2024/04/15 02:51:15;;;;;;;;;;;;;;;;;;5452952;26;19928;-64
2024/04/15 02:53:40;;;;;;;;;;;;;;;;;;5452013;26;19929;-63
2024/04/15 02:56:06;;;;;;;;;;;;;;;;;;5452888;26;19928;-63
2024/04/15 02:58:31;;;;;;;;;;;;;;;;;;5452961;26;19935;-63
2024/04/15 03:00:56;;;;;;;;;;;;;;;;;;5452498;26;19929;-63
2024/04/15 03:03:21;;;;;;;;;;;;;;;;;;5452962;26;19929;-63
2024/04/15 03:05:46;;;;;;;;;;;;;;;;;;5452440;26;19936;-63
2024/04/15 03:08:11;;;;;;;;;;;;;;;;;;5452782;26;20272;-63
2024/04/15 03:10:36;;;;;;;;;;;;;;;;;;5452576;26;20401;-63
2024/04/15 03:13:01;;;;;;;;;;;;;;;;;;5452465;26;19928;-63
2024/04/15 03:15:27;;;;;;;;;;;;;;;;;;5452666;26;19928;-63
2024/04/15 03:17:52;;;;;;;;;;;;;;;;;;5452629;26;20037;-64
2024/04/15 03:20:17;;;;;;;;;;;;;;;;;;5452890;26;20261;-63
2024/04/15 03:22:42;;;;;;;;;;;;;;;;;;5452523;26;20391;-63
2024/04/15 03:25:07;;;;;;;;;;;;;;;;;;5452318;26;19929;-63
2024/04/15 03:27:32;;;;;;;;;;;;;;;;;;5452496;26;19936;-64
2024/04/15 03:29:57;;;;;;;;;;;;;;;;;;5452403;26;19935;-63
2024/04/15 03:32:23;;;;;;;;;;;;;;;;;;5452310;26;19993;-63
2024/04/15 03:34:48;;;;;;;;;;;;;;;;;;5452308;26;19961;-64
2024/04/15 03:37:13;;;;;;;;;;;;;;;;;;5452572;26;19929;-63
2024/04/15 03:39:38;;;;;;;;;;;;;;;;;;5450577;26;19928;-63
2024/04/15 03:42:03;;;;;;;;;;;;;;;;;;5450190;26;19929;-64
2024/04/15 03:44:28;;;;;;;;;;;;;;;;;;5451593;26;19929;-63
2024/04/15 03:46:53;;;;;;;;;;;;;;;;;;5451220;26;19940;-64
2024/04/15 03:49:18;;;;;;;;;;;;;;;;;;5451662;26;19938;-61
2024/04/15 03:51:44;;;;;;;;;;;;;;;;;;5451761;26;19935;-62
2024/04/15 03:54:09;;;;;;;;;;;;;;;;;;5450837;26;19957;-62
2024/04/15 03:56:34;;;;;;;;;;;;;;;;;;5451495;26;19998;-61
2024/04/15 03:58:59;;;;;;;;;;;;;;;;;;5452028;26;20005;-62
2024/04/15 04:01:24;;;;;;;;;;;;;;;;;;5452026;26;19940;-61
2024/04/15 04:03:49;;;;;;;;;;;;;;;;;;5451982;26;19935;-61
2024/04/15 04:06:14;;;;;;;;;;;;;;;;;;5475870;26;19928;-61
2024/04/15 04:08:39;;;;;;;;;;;;;;;;;;5463617;26;19932;-61
2024/04/15 04:11:05;;;;;;;;;;;;;;;;;;5452815;26;19997;-61
2024/04/15 04:13:30;;;;;;;;;;;;;;;;;;5451390;26;19949;-61
2024/04/15 04:15:56;;;;;;;;;;;;;;;;;;5459571;26;19935;-61
2024/04/15 04:18:21;;;;;;;;;;;;;;;;;;5485044;26;19934;-61
2024/04/15 04:20:46;;;;;;;;;;;;;;;;;;5482789;26;19928;-61
2024/04/15 04:23:11;;;;;;;;;;;;;;;;;;5478096;26;19940;-61
2024/04/15 04:25:36;;;;;;;;;;;;;;;;;;5483136;26;20250;-62
2024/04/15 04:28:01;;;;;;;;;;;;;;;;;;5464207;26;19935;-61
2024/04/15 04:30:26;;;;;;;;;;;;;;;;;;5470517;26;20262;-61
2024/04/15 04:32:51;;;;;;;;;;;;;;;;;;5452344;26;20281;-61
2024/04/15 04:35:17;;;;;;;;;;;;;;;;;;5457476;26;19929;-61
2024/04/15 04:37:42;;;;;;;;;;;;;;;;;;5455251;26;19928;-60
2024/04/15 04:40:07;;;;;;;;;;;;;;;;;;5455867;26;19935;-61
2024/04/15 04:42:32;;;;;;;;;;;;;;;;;;5454391;26;19940;-61
2024/04/15 04:44:57;;;;;;;;;;;;;;;;;;5487810;26;19935;-61
2024/04/15 04:47:22;;;;;;;;;;;;;;;;;;5487410;26;19935;-61
2024/04/15 04:49:47;;;;;;;;;;;;;;;;;;5487709;26;19996;-61
2024/04/15 04:52:12;;;;;;;;;;;;;;;;;;5466007;26;19936;-60
2024/04/15 04:54:38;;;;;;;;;;;;;;;;;;5450709;26;19932;-61
2024/04/15 04:57:03;;;;;;;;;;;;;;;;;;5451452;26;19928;-62
2024/04/15 04:59:28;;;;;;;;;;;;;;;;;;5449926;26;19935;-61
2024/04/15 05:01:53;;;;;;;;;;;;;;;;;;5453245;26;20021;-61
2024/04/15 05:04:18;;;;;;;;;;;;;;;;;;5459170;26;19928;-61
2024/04/15 05:06:43;;;;;;;;;;;;;;;;;;5455636;26;19944;-61
2024/04/15 05:09:08;;;;;;;;;;;;;;;;;;5457642;26;19940;-61
2024/04/15 05:11:34;;;;;;;;;;;;;;;;;;5441825;26;20646;-61
2024/04/15 05:13:59;;;;;;;;;;;;;;;;;;5449701;26;19928;-61
2024/04/15 05:16:24;;;;;;;;;;;;;;;;;;5443227;26;19928;-60
2024/04/15 05:18:49;;;;;;;;;;;;;;;;;;5440529;26;19929;-60
2024/04/15 05:21:16;;;;;;;;;;;;;;;;;;5444563;26;19930;-60
2024/04/15 05:23:41;;;;;;;;;;;;;;;;;;5447050;26;20009;-61
2024/04/15 05:26:06;;;;;;;;;;;;;;;;;;5430820;26;19941;-60
2024/04/15 05:28:31;;;;;;;;;;;;;;;;;;5448016;26;19937;-62
2024/04/15 05:30:57;;;;;;;;;;;;;;;;;;5441349;26;19974;-62
2024/04/15 05:33:22;;;;;;;;;;;;;;;;;;5449647;26;19936;-62
2024/04/15 05:35:47;;;;;;;;;;;;;;;;;;5444246;26;19933;-63
2024/04/15 05:38:12;;;;;;;;;;;;;;;;;;5438866;26;19933;-62
2024/04/15 05:40:37;;;;;;;;;;;;;;;;;;5442969;26;19928;-62
2024/04/15 05:43:02;;;;;;;;;;;;;;;;;;5433174;26;20376;-61
2024/04/15 05:45:27;;;;;;;;;;;;;;;;;;5445797;26;19936;-61
2024/04/15 05:47:53;;;;;;;;;;;;;;;;;;5449479;26;19928;-61
2024/04/15 05:50:18;;;;;;;;;;;;;;;;;;5448808;26;19935;-61
2024/04/15 05:52:43;;;;;;;;;;;;;;;;;;5439676;26;19940;-61
2024/04/15 05:55:08;;;;;;;;;;;;;;;;;;5448609;26;19928;-62
2024/04/15 05:57:33;;;;;;;;;;;;;;;;;;5446163;26;19952;-61
2024/04/15 05:59:58;;;;;;;;;;;;;;;;;;5426593;26;19928;-61
2024/04/15 06:02:23;;;;;;;;;;;;;;;;;;5446553;26;19935;-62
2024/04/15 06:04:50;;;;;;;;;;;;;;;;;;5445915;26;19960;-61
2024/04/15 06:07:15;;;;;;;;;;;;;;;;;;5447788;26;19960;-61
2024/04/15 06:09:40;;;;;;;;;;;;;;;;;;5447211;26;19978;-63
2024/04/15 06:12:06;;;;;;;;;;;;;;;;;;5429587;26;19929;-62
2024/04/15 06:14:31;;;;;;;;;;;;;;;;;;5449105;26;19932;-62
2024/04/15 06:16:57;;;;;;;;;;;;;;;;;;5452151;26;19928;-62
2024/04/15 06:19:22;;;;;;;;;;;;;;;;;;5453586;26;19935;-63
2024/04/15 06:21:47;;;;;;;;;;;;;;;;;;5452591;26;19928;-63
2024/04/15 06:24:13;;;;;;;;;;;;;;;;;;5452370;26;19928;-63
2024/04/15 06:26:38;;;;;;;;;;;;;;;;;;5450679;26;19929;-63
2024/04/15 06:29:03;;;;;;;;;;;;;;;;;;5452366;26;19937;-63
2024/04/15 06:31:29;;;;;;;;;;;;;;;;;;5452657;26;19996;-63
2024/04/15 06:33:54;;;;;;;;;;;;;;;;;;5452354;26;19952;-63
2024/04/15 06:36:19;;;;;;;;;;;;;;;;;;5450783;26;19928;-63
2024/04/15 06:38:46;;;;;;;;;;;;;;;;;;5453372;26;19997;-63
2024/04/15 06:41:11;;;;;;;;;;;;;;;;;;5451454;26;19929;-62
2024/04/15 06:43:36;;;;;;;;;;;;;;;;;;5452962;26;19936;-62
2024/04/15 06:46:01;;;;;;;;;;;;;;;;;;5452947;26;19932;-63
2024/04/15 06:48:26;;;;;;;;;;;;;;;;;;5451671;26;19934;-63
2024/04/15 06:50:52;;;;;;;;;;;;;;;;;;5451522;26;19936;-63
2024/04/15 06:53:17;;;;;;;;;;;;;;;;;;5449153;26;20048;-63
2024/04/15 06:55:42;;;;;;;;;;;;;;;;;;5450121;26;19941;-63
2024/04/15 06:58:07;;;;;;;;;;;;;;;;;;5450230;26;19929;-63
2024/04/15 07:00:32;;;;;;;;;;;;;;;;;;5452023;26;19929;-62
2024/04/15 07:02:57;;;;;;;;;;;;;;;;;;5451277;26;20375;-63
2024/04/15 07:05:22;;;;;;;;;;;;;;;;;;5452620;26;20378;-63
2024/04/15 07:07:47;;;;;;;;;;;;;;;;;;5449917;26;20362;-63
2024/04/15 07:10:13;;;;;;;;;;;;;;;;;;5451848;26;19947;-63
2024/04/15 07:12:38;;;;;;;;;;;;;;;;;;5449395;26;19940;-63
2024/04/15 07:15:03;;;;;;;;;;;;;;;;;;5451961;26;19932;-63
2024/04/15 07:17:28;;;;;;;;;;;;;;;;;;5451928;26;19928;-63
2024/04/15 07:19:53;;;;;;;;;;;;;;;;;;5451796;26;19943;-63
2024/04/15 07:22:18;;;;;;;;;;;;;;;;;;5450363;26;19968;-63
2024/04/15 07:24:43;;;;;;;;;;;;;;;;;;5449164;26;19965;-63
2024/04/15 07:27:09;;;;;;;;;;;;;;;;;;5451437;26;20434;-61
2024/04/15 07:29:35;;;;;;;;;;;;;;;;;;5451323;26;20445;-62
2024/04/15 07:32:00;;;;;;;;;;;;;;;;;;5451488;26;20269;-62
2024/04/15 07:34:25;;;;;;;;;;;;;;;;;;5450986;26;19928;-62
2024/04/15 07:36:50;;;;;;;;;;;;;;;;;;5452666;26;19928;-62
2024/04/15 07:39:15;;;;;;;;;;;;;;;;;;5451763;26;20350;-61
2024/04/15 07:41:40;;;;;;;;;;;;;;;;;;5448957;26;19936;-62
2024/04/15 07:44:06;;;;;;;;;;;;;;;;;;5451093;26;20430;-62
2024/04/15 07:46:31;;;;;;;;;;;;;;;;;;5452128;26;20045;-61
2024/04/15 07:48:56;;;;;;;;;;;;;;;;;;5450532;26;20268;-62
2024/04/15 07:51:21;;;;;;;;;;;;;;;;;;5451217;26;19936;-62
2024/04/15 07:53:47;;;;;;;;;;;;;;;;;;5447957;26;19929;-62
2024/04/15 07:56:12;;;;;;;;;;;;;;;;;;5452219;26;20009;-62
2024/04/15 07:58:37;;;;;;;;;;;;;;;;;;5448453;26;19956;-60
2024/04/15 08:01:02;;;;;;;;;;;;;;;;;;5451750;26;19932;-61
2024/04/15 08:03:27;;;;;;;;;;;;;;;;;;5451607;26;19928;-62
2024/04/15 08:05:52;;;;;;;;;;;;;;;;;;5452141;26;19929;-62
2024/04/15 08:08:17;;;;;;;;;;;;;;;;;;5450962;26;19932;-61
2024/04/15 08:10:42;;;;;;;;;;;;;;;;;;5451140;26;19936;-61
2024/04/15 08:13:08;;;;;;;;;;;;;;;;;;5450215;26;20368;-61
2024/04/15 08:15:33;;;;;;;;;;;;;;;;;;5451572;26;19936;-61
2024/04/15 08:17:58;;;;;;;;;;;;;;;;;;5451621;26;19929;-61
2024/04/15 08:20:23;;;;;;;;;;;;;;;;;;5451090;26;19929;-61
2024/04/15 08:22:48;;;;;;;;;;;;;;;;;;5451485;26;20456;-61
2024/04/15 08:25:14;;;;;;;;;;;;;;;;;;5450457;26;20389;-59
2024/04/15 08:27:40;;;;;;;;;;;;;;;;;;5448426;26;19935;-62
2024/04/15 08:30:05;;;;;;;;;;;;;;;;;;5448908;26;20365;-61
2024/04/15 08:32:30;;;;;;;;;;;;;;;;;;5450847;26;20326;-60
2024/04/15 08:34:56;;;;;;;;;;;;;;;;;;5449830;26;20342;-60
2024/04/15 08:37:21;;;;;;;;;;;;;;;;;;5451688;26;19939;-61
2024/04/15 08:39:46;;;;;;;;;;;;;;;;;;5451149;26;19928;-61
2024/04/15 08:42:11;;;;;;;;;;;;;;;;;;5451534;26;19928;-61
2024/04/15 08:44:36;;;;;;;;;;;;;;;;;;5460961;26;19928;-61
2024/04/15 08:47:01;;;;;;;;;;;;;;;;;;5450489;26;20399;-61
2024/04/15 08:49:26;;;;;;;;;;;;;;;;;;5450619;26;19935;-61
2024/04/15 08:51:52;;;;;;;;;;;;;;;;;;5449598;26;19935;-62
2024/04/15 08:54:17;;;;;;;;;;;;;;;;;;5450587;26;19935;-61
2024/04/15 08:56:43;;;;;;;;;;;;;;;;;;5448868;26;19932;-61
2024/04/15 08:59:08;;;;;;;;;;;;;;;;;;5448407;26;19929;-61
2024/04/15 09:01:33;;;;;;;;;;;;;;;;;;5450658;26;19928;-61
2024/04/15 09:03:59;;;;;;;;;;;;;;;;;;5450988;26;20342;-61
2024/04/15 09:06:24;;;;;;;;;;;;;;;;;;5449214;26;19936;-61
2024/04/15 09:08:49;;;;;;;;;;;;;;;;;;5450211;26;19935;-61
2024/04/15 09:11:14;;;;;;;;;;;;;;;;;;5450172;26;19935;-62
2024/04/15 09:13:39;;;;;;;;;;;;;;;;;;5470327;26;19935;-60
2024/04/15 09:16:05;;;;;;;;;;;;;;;;;;5451263;26;19939;-60
2024/04/15 09:18:30;;;;;;;;;;;;;;;;;;5450101;26;20473;-60
2024/04/15 09:20:55;;;;;;;;;;;;;;;;;;5450589;26;19932;-61
2024/04/15 09:23:20;;;;;;;;;;;;;;;;;;5450176;26;20001;-61
2024/04/15 09:25:45;;;;;;;;;;;;;;;;;;5450573;26;20052;-62
2024/04/15 09:28:10;;;;;;;;;;;;;;;;;;5448099;26;19935;-61
2024/04/15 09:30:35;;;;;;;;;;;;;;;;;;5449660;26;19936;-62
2024/04/15 09:33:01;;;;;;;;;;;;;;;;;;5449825;26;19939;-61
2024/04/15 09:35:26;;;;;;;;;;;;;;;;;;5450012;26;19929;-61
2024/04/15 09:37:51;;;;;;;;;;;;;;;;;;5449601;26;19937;-62
2024/04/15 09:40:20;;;;;;;;;;;;;;;;;;5449874;26;19936;-60
2024/04/15 09:42:45;;;;;;;;;;;;;;;;;;5456457;26;19956;-61
2024/04/15 09:45:10;;;;;;;;;;;;;;;;;;5473928;26;19928;-61
2024/04/15 09:47:35;;;;;;;;;;;;;;;;;;5453920;26;19933;-61
2024/04/15 09:50:00;;;;;;;;;;;;;;;;;;5452821;26;19940;-60
2024/04/15 09:52:25;;;;;;;;;;;;;;;;;;5450876;26;20269;-60
2024/04/15 09:54:53;;;;;;;;;;;;;;;;;;5452935;26;19939;-61
2024/04/15 09:57:18;;;;;;;;;;;;;;;;;;5449878;26;19936;-60
2024/04/15 09:59:43;;;;;;;;;;;;;;;;;;5453718;26;19928;-62
2024/04/15 10:02:08;;;;;;;;;;;;;;;;;;5451397;26;19943;-60
2024/04/15 10:04:33;;;;;;;;;;;;;;;;;;5453531;26;19935;-61
2024/04/15 10:06:58;;;;;;;;;;;;;;;;;;5452837;26;19998;-60
2024/04/15 10:09:24;;;;;;;;;;;;;;;;;;5453592;26;20535;-61
2024/04/15 10:11:49;;;;;;;;;;;;;;;;;;5452489;26;19936;-60
2024/04/15 10:14:14;;;;;;;;;;;;;;;;;;5452519;26;19956;-60
2024/04/15 10:16:39;;;;;;;;;;;;;;;;;;5448223;26;19940;-61
2024/04/15 10:19:04;;;;;;;;;;;;;;;;;;5452432;26;19928;-61
2024/04/15 10:21:29;;;;;;;;;;;;;;;;;;5452851;26;19953;-62
2024/04/15 10:23:55;;;;;;;;;;;;;;;;;;5453462;26;20277;-61
2024/04/15 10:26:22;;;;;;;;;;;;;;;;;;5450708;26;19929;-61
2024/04/15 10:28:47;;;;;;;;;;;;;;;;;;5453260;26;19928;-61
2024/04/15 10:31:12;;;;;;;;;;;;;;;;;;5452402;26;20013;-61
2024/04/15 10:33:37;;;;;;;;;;;;;;;;;;5450590;26;20292;-62
2024/04/15 10:36:03;;;;;;;;;;;;;;;;;;5452298;26;19936;-62
2024/04/15 10:38:28;;;;;;;;;;;;;;;;;;5450448;26;19943;-60
2024/04/15 10:40:55;;;;;;;;;;;;;;;;;;5452197;26;19928;-60
2024/04/15 10:43:23;;;;;;;;;;;;;;;;;;5467978;26;19952;-61
2024/04/15 10:45:48;;;;;;;;;;;;;;;;;;5465848;26;20357;-61
2024/04/15 10:48:13;;;;;;;;;;;;;;;;;;5450377;26;19935;-61
2024/04/15 10:50:38;;;;;;;;;;;;;;;;;;5452301;26;19933;-61
2024/04/15 10:53:03;;;;;;;;;;;;;;;;;;5451884;26;19929;-62
2024/04/15 10:55:29;;;;;;;;;;;;;;;;;;5452911;26;19937;-61
2024/04/15 10:57:54;;;;;;;;;;;;;;;;;;5449353;26;20019;-61
2024/04/15 11:00:19;;;;;;;;;;;;;;;;;;5452494;26;19994;-61
2024/04/15 11:02:45;;;;;;;;;;;;;;;;;;5448821;26;20433;-60
2024/04/15 11:05:10;;;;;;;;;;;;;;;;;;5452834;26;19936;-60
2024/04/15 11:07:35;;;;;;;;;;;;;;;;;;5450341;26;19929;-61
2024/04/15 11:10:00;;;;;;;;;;;;;;;;;;5446972;26;20584;-60
2024/04/15 11:12:25;;;;;;;;;;;;;;;;;;5451494;26;20406;-61
2024/04/15 11:14:50;;;;;;;;;;;;;;;;;;5451960;26;20288;-61
2024/04/15 11:17:15;;;;;;;;;;;;;;;;;;5451679;26;20384;-62
2024/04/15 11:19:40;;;;;;;;;;;;;;;;;;5449785;26;20276;-62
2024/04/15 11:22:06;;;;;;;;;;;;;;;;;;5452710;26;20269;-61
2024/04/15 11:24:31;;;;;;;;;;;;;;;;;;5452493;26;19933;-61
2024/04/15 11:26:56;;;;;;;;;;;;;;;;;;5452254;26;19933;-61
2024/04/15 11:29:21;;;;;;;;;;;;;;;;;;5448863;26;20026;-61
2024/04/15 11:31:46;;;;;;;;;;;;;;;;;;5450560;26;20385;-60
2024/04/15 11:34:11;;;;;;;;;;;;;;;;;;5448749;26;19936;-60
2024/04/15 11:36:40;;;;;;;;;;;;;;;;;;5452404;26;19935;-61
2024/04/15 11:39:05;;;;;;;;;;;;;;;;;;5450782;26;19939;-61
2024/04/15 11:41:30;;;;;;;;;;;;;;;;;;5451554;26;19929;-61
2024/04/15 11:43:55;;;;;;;;;;;;;;;;;;5476029;26;19960;-61
2024/04/15 11:46:20;;;;;;;;;;;;;;;;;;5464679;26;19936;-62
2024/04/15 11:48:46;;;;;;;;;;;;;;;;;;5451315;26;19928;-61
2024/04/15 11:51:11;;;;;;;;;;;;;;;;;;5448400;26;19940;-60
2024/04/15 11:53:36;;;;;;;;;;;;;;;;;;5448182;26;19941;-61
2024/04/15 11:56:03;;;;;;;;;;;;;;;;;;5450371;26;19928;-61
2024/04/15 11:58:28;;;;;;;;;;;;;;;;;;5447575;26;19928;-61
2024/04/15 12:00:53;;;;;;;;;;;;;;;;;;5451404;26;19940;-61
2024/04/15 12:03:18;;;;;;;;;;;;;;;;;;5451165;26;19997;-61
2024/04/15 12:05:43;;;;;;;;;;;;;;;;;;5449214;26;19936;-60
2024/04/15 12:08:08;;;;;;;;;;;;;;;;;;5449378;26;19928;-63
2024/04/15 12:10:34;;;;;;;;;;;;;;;;;;5450462;26;19928;-63
2024/04/15 12:12:59;;;;;;;;;;;;;;;;;;5450772;26;19935;-64
2024/04/15 12:15:24;;;;;;;;;;;;;;;;;;5451370;26;19936;-63
2024/04/15 12:17:50;;;;;;;;;;;;;;;;;;5450828;26;20372;-63
2024/04/15 12:20:15;;;;;;;;;;;;;;;;;;5448626;26;19948;-64
2024/04/15 12:22:40;;;;;;;;;;;;;;;;;;5451089;26;19929;-63
2024/04/15 12:25:06;;;;;;;;;;;;;;;;;;5451716;26;19939;-64
2024/04/15 12:27:31;;;;;;;;;;;;;;;;;;5449262;26;19939;-63
2024/04/15 12:29:56;;;;;;;;;;;;;;;;;;5451582;26;19928;-64
2024/04/15 12:32:22;;;;;;;;;;;;;;;;;;5450619;26;20352;-63
2024/04/15 12:34:47;;;;;;;;;;;;;;;;;;5450752;26;19939;-63
2024/04/15 12:37:12;;;;;;;;;;;;;;;;;;5449067;26;19935;-63
2024/04/15 12:39:37;;;;;;;;;;;;;;;;;;5449941;26;20376;-63
2024/04/15 12:42:03;;;;;;;;;;;;;;;;;;5448611;26;19948;-63
2024/04/15 12:44:28;;;;;;;;;;;;;;;;;;5450495;26;20268;-63
2024/04/15 12:46:53;;;;;;;;;;;;;;;;;;5451313;26;19935;-63
2024/04/15 12:49:19;;;;;;;;;;;;;;;;;;5450566;26;19998;-63
2024/04/15 12:51:44;;;;;;;;;;;;;;;;;;5448098;26;20330;-63
2024/04/15 12:54:10;;;;;;;;;;;;;;;;;;5450197;26;20306;-63
2024/04/15 12:56:35;;;;;;;;;;;;;;;;;;5450486;26;20711;-63
2024/04/15 12:59:02;;;;;;;;;;;;;;;;;;5450257;26;20462;-64
2024/04/15 13:01:27;;;;;;;;;;;;;;;;;;5448453;26;19935;-63
2024/04/15 13:03:52;;;;;;;;;;;;;;;;;;5450250;26;19963;-63
2024/04/15 13:06:18;;;;;;;;;;;;;;;;;;5449860;26;19935;-63
2024/04/15 13:08:44;;;;;;;;;;;;;;;;;;5447357;26;19935;-63
2024/04/15 13:11:09;;;;;;;;;;;;;;;;;;5449807;26;19928;-63
2024/04/15 13:13:35;;;;;;;;;;;;;;;;;;5449526;26;20290;-63
2024/04/15 13:16:00;;;;;;;;;;;;;;;;;;5450829;26;20364;-63
2024/04/15 13:18:25;;;;;;;;;;;;;;;;;;5448919;26;19935;-60
2024/04/15 13:20:50;;;;;;;;;;;;;;;;;;5449529;26;20000;-61
2024/04/15 13:23:15;;;;;;;;;;;;;;;;;;5448110;26;19928;-62
2024/04/15 13:25:40;;;;;;;;;;;;;;;;;;5449994;26;19943;-61
2024/04/15 13:28:06;;;;;;;;;;;;;;;;;;5449877;26;19929;-60
2024/04/15 13:30:31;;;;;;;;;;;;;;;;;;5450273;26;19936;-61
2024/04/15 13:32:56;;;;;;;;;;;;;;;;;;5450472;26;19976;-60
2024/04/15 13:35:21;;;;;;;;;;;;;;;;;;5449706;26;19935;-61
2024/04/15 13:37:46;;;;;;;;;;;;;;;;;;5447566;26;20615;-60
2024/04/15 13:40:11;;;;;;;;;;;;;;;;;;5449879;26;20198;-61
2024/04/15 13:42:36;;;;;;;;;;;;;;;;;;5453945;26;20277;-60
2024/04/15 13:45:02;;;;;;;;;;;;;;;;;;5474543;26;19996;-61
2024/04/15 13:47:27;;;;;;;;;;;;;;;;;;5450210;26;19928;-61
2024/04/15 13:49:52;;;;;;;;;;;;;;;;;;5449319;26;19936;-62
2024/04/15 13:52:17;;;;;;;;;;;;;;;;;;5448296;26;19929;-61
2024/04/15 13:54:43;;;;;;;;;;;;;;;;;;5444460;26;19936;-60
2024/04/15 13:57:08;;;;;;;;;;;;;;;;;;5450035;26;20319;-61
2024/04/15 13:59:33;;;;;;;;;;;;;;;;;;5449462;26;19936;-63
2024/04/15 14:01:58;;;;;;;;;;;;;;;;;;5449065;26;19978;-60
2024/04/15 14:04:23;;;;;;;;;;;;;;;;;;5449340;26;20384;-61
2024/04/15 14:06:49;;;;;;;;;;;;;;;;;;5448932;26;20376;-60
2024/04/15 14:09:18;;;;;;;;;;;;;;;;;;5447442;26;20368;-67
2024/04/15 14:11:43;;;;;;;;;;;;;;;;;;5449260;26;20662;-62
2024/04/15 14:14:08;;;;;;;;;;;;;;;;;;5476745;26;19954;-60
2024/04/15 14:16:33;;;;;;;;;;;;;;;;;;5468512;26;20350;-61
2024/04/15 14:18:59;;;;;;;;;;;;;;;;;;5449134;26;19928;-62
2024/04/15 14:21:25;;;;;;;;;;;;;;;;;;5449540;26;19929;-61
2024/04/15 14:23:50;;;;;;;;;;;;;;;;;;5449501;26;20274;-61
2024/04/15 14:26:15;;;;;;;;;;;;;;;;;;5446748;26;19982;-61
2024/04/15 14:28:40;;;;;;;;;;;;;;;;;;5449684;26;20272;-64
2024/04/15 14:31:05;;;;;;;;;;;;;;;;;;5447071;26;19928;-64
2024/04/15 14:33:30;;;;;;;;;;;;;;;;;;5452788;26;19929;-64
2024/04/15 14:35:55;;;;;;;;;;;;;;;;;;5452480;26;19956;-63
2024/04/15 14:38:21;;;;;;;;;;;;;;;;;;5452133;26;20001;-63
2024/04/15 14:40:46;;;;;;;;;;;;;;;;;;5451297;26;19940;-63
2024/04/15 14:43:11;;;;;;;;;;;;;;;;;;5464981;26;20483;-63
2024/04/15 14:45:37;;;;;;;;;;;;;;;;;;5450566;26;20364;-63
2024/04/15 14:48:02;;;;;;;;;;;;;;;;;;5450394;26;19928;-64
2024/04/15 14:50:27;;;;;;;;;;;;;;;;;;5452783;26;19969;-64
2024/04/15 14:52:52;;;;;;;;;;;;;;;;;;5451667;26;20022;-63
2024/04/15 14:55:17;;;;;;;;;;;;;;;;;;5449257;26;19936;-64
2024/04/15 14:57:43;;;;;;;;;;;;;;;;;;5448938;26;20704;-64
2024/04/15 15:00:10;;;;;;;;;;;;;;;;;;5452493;26;19948;-64
2024/04/15 15:02:35;;;;;;;;;;;;;;;;;;5448337;26;20389;-64
2024/04/15 15:05:00;;;;;;;;;;;;;;;;;;5452542;26;19997;-64
2024/04/15 15:07:26;;;;;;;;;;;;;;;;;;5451308;26;20363;-64
2024/04/15 15:09:51;;;;;;;;;;;;;;;;;;5452640;26;19935;-64
2024/04/15 15:12:16;;;;;;;;;;;;;;;;;;5450149;26;20673;-64
2024/04/15 15:14:41;;;;;;;;;;;;;;;;;;5451513;26;19928;-63
2024/04/15 15:17:06;;;;;;;;;;;;;;;;;;5451944;26;19935;-63
2024/04/15 15:19:31;;;;;;;;;;;;;;;;;;5452085;26;19939;-63
2024/04/15 15:21:56;;;;;;;;;;;;;;;;;;5452341;26;19939;-63
2024/04/15 15:24:22;;;;;;;;;;;;;;;;;;5450985;26;19935;-63
2024/04/15 15:26:47;;;;;;;;;;;;;;;;;;5445849;26;19943;-64
2024/04/15 15:29:13;;;;;;;;;;;;;;;;;;5470135;26;20006;-64
2024/04/15 15:31:38;;;;;;;;;;;;;;;;;;5470516;26;19937;-64
2024/04/15 15:34:03;;;;;;;;;;;;;;;;;;5466440;26;19948;-64
2024/04/15 15:36:28;;;;;;;;;;;;;;;;;;5445387;26;19939;-63
2024/04/15 15:38:54;;;;;;;;;;;;;;;;;;5446345;26;19944;-64
2024/04/15 15:41:19;;;;;;;;;;;;;;;;;;5459892;26;19956;-63
2024/04/15 15:43:44;;;;;;;;;;;;;;;;;;5455610;26;19936;-64
2024/04/15 15:46:10;;;;;;;;;;;;;;;;;;5452513;26;19944;-64
2024/04/15 15:48:35;;;;;;;;;;;;;;;;;;5458095;26;19937;-64
2024/04/15 15:51:01;;;;;;;;;;;;;;;;;;5455772;26;19953;-64
2024/04/15 15:53:26;;;;;;;;;;;;;;;;;;5455839;26;19976;-64
2024/04/15 15:55:51;;;;;;;;;;;;;;;;;;5457007;26;19940;-64
2024/04/15 15:58:16;;;;;;;;;;;;;;;;;;5446574;26;20048;-64
2024/04/15 16:00:41;;;;;;;;;;;;;;;;;;5446946;26;19929;-63
2024/04/15 16:03:06;;;;;;;;;;;;;;;;;;5448473;26;19940;-64
2024/04/15 16:05:31;;;;;;;;;;;;;;;;;;5449418;26;19936;-64
2024/04/15 16:07:58;;;;;;;;;;;;;;;;;;5449439;26;20348;-63
2024/04/15 16:10:23;;;;;;;;;;;;;;;;;;5467540;26;20367;-63
2024/04/15 16:12:48;;;;;;;;;;;;;;;;;;5454685;26;19928;-63
2024/04/15 16:15:13;;;;;;;;;;;;;;;;;;5455957;26;19968;-63
2024/04/15 16:17:40;;;;;;;;;;;;;;;;;;5466249;26;20274;-64
2024/04/15 16:20:07;;;;;;;;;;;;;;;;;;5462489;26;19928;-64
2024/04/15 16:22:32;;;;;;;;;;;;;;;;;;5466687;26;19936;-63
2024/04/15 16:24:57;;;;;;;;;;;;;;;;;;5467822;26;19928;-63
2024/04/15 16:27:22;;;;;;;;;;;;;;;;;;5462891;26;19928;-63
2024/04/15 16:29:48;;;;;;;;;;;;;;;;;;5458495;26;20032;-64
2024/04/15 16:32:16;;;;;;;;;;;;;;;;;;5460870;26;19935;-63